Time;durP1;ratioP1;P1;durP2;ratioP2;P2;SDS_P1;SDS_P2;PMS_P1;PMS_P2;Temp;Humidity;BMP_temperature;BMP_pressure;BME280_temperature;BME280_humidity;BME280_pressure;Samples;Min_cycle;Max_cycle;Signal;HPM_P1;HPM_P2
2023/06/04 00:01:13;;;;;;;;;;;;;;;14.94;37.95;101743.75;4188543;28;20025;-72
2023/06/04 00:03:15;;;;;;;;;;;;;;;14.95;37.85;101748.13;4187636;28;20017;-72
2023/06/04 00:05:17;;;;;;;;;;;;;;;14.93;37.60;101739.31;4185525;28;20088;-73
2023/06/04 00:07:19;;;;;;;;;;;;;;;14.91;37.58;101742.22;4188433;28;20041;-72
2023/06/04 00:09:21;;;;;;;;;;;;;;;14.91;37.85;101739.50;4188250;28;20015;-73
2023/06/04 00:11:23;;;;;;;;;;;;;;;14.93;37.49;101736.59;4187402;28;20027;-72
2023/06/04 00:13:26;;;;;;;;;;;;;;;14.89;37.67;101741.56;4187394;28;20039;-72
2023/06/04 00:15:28;;;;;;;;;;;;;;;14.88;37.50;101739.03;4186885;28;20015;-74
2023/06/04 00:17:30;;;;;;;;;;;;;;;14.87;37.54;101731.88;4188458;28;19960;-74
2023/06/04 00:19:33;;;;;;;;;;;;;;;14.86;37.83;101731.06;4187305;28;20011;-74
2023/06/04 00:21:35;;;;;;;;;;;;;;;14.82;37.49;101728.88;4187650;28;20024;-73
2023/06/04 00:23:37;;;;;;;;;;;;;;;14.76;37.66;101727.72;4188812;28;20019;-73
2023/06/04 00:25:39;;;;;;;;;;;;;;;14.73;37.55;101728.94;4187388;28;20012;-73
2023/06/04 00:27:41;;;;;;;;;;;;;;;14.72;37.88;101719.06;4188113;28;20438;-73
2023/06/04 00:29:45;;;;;;;;;;;;;;;14.71;38.16;101722.81;4185954;28;20016;-73
2023/06/04 00:31:47;;;;;;;;;;;;;;;14.68;38.37;101719.63;4203518;28;20030;-73
2023/06/04 00:33:49;;;;;;;;;;;;;;;14.63;38.42;101722.88;4184302;28;20455;-73
2023/06/04 00:35:51;;;;;;;;;;;;;;;14.54;38.79;101722.03;4169335;28;19952;-73
2023/06/04 00:37:53;;;;;;;;;;;;;;;14.44;38.74;101716.00;4188211;28;20015;-73
2023/06/04 00:39:55;;;;;;;;;;;;;;;14.37;39.17;101715.00;4186061;28;19995;-73
2023/06/04 00:41:57;;;;;;;;;;;;;;;14.32;39.54;101714.69;4187442;28;20044;-74
2023/06/04 00:44:01;;;;;;;;;;;;;;;14.28;39.48;101722.38;4185283;28;20023;-72
2023/06/04 00:46:06;;;;;;;;;;;;;;;14.24;40.04;101718.31;4217972;28;20003;-73
2023/06/04 00:48:08;;;;;;;;;;;;;;;14.21;40.11;101710.50;4214323;28;20010;-72
2023/06/04 00:50:11;;;;;;;;;;;;;;;14.18;40.36;101711.69;4185760;28;20011;-73
2023/06/04 00:52:13;;;;;;;;;;;;;;;14.14;40.42;101704.09;4185757;28;20389;-73
2023/06/04 00:54:15;;;;;;;;;;;;;;;14.12;40.41;101717.00;4183868;28;20458;-72
2023/06/04 00:56:18;;;;;;;;;;;;;;;14.11;40.65;101715.31;4186209;28;20016;-72
2023/06/04 00:58:20;;;;;;;;;;;;;;;14.11;40.74;101716.16;4187187;28;20047;-72
2023/06/04 01:00:22;;;;;;;;;;;;;;;14.09;40.85;101720.94;4187202;28;20015;-72
2023/06/04 01:02:26;;;;;;;;;;;;;;;14.06;40.99;101715.84;4186406;28;20420;-72
2023/06/04 01:04:28;;;;;;;;;;;;;;;14.02;41.48;101715.34;4187086;28;20016;-72
2023/06/04 01:06:32;;;;;;;;;;;;;;;13.99;41.22;101718.41;4185290;28;20019;-72
2023/06/04 01:08:34;;;;;;;;;;;;;;;13.97;41.53;101714.19;4180879;28;20028;-73
2023/06/04 01:10:36;;;;;;;;;;;;;;;13.96;41.44;101715.19;4185842;28;20020;-73
2023/06/04 01:12:40;;;;;;;;;;;;;;;13.92;41.75;101714.72;4184662;28;20020;-73
2023/06/04 01:14:42;;;;;;;;;;;;;;;13.87;41.68;101715.25;4184663;28;20011;-72
2023/06/04 01:16:44;;;;;;;;;;;;;;;13.84;41.79;101712.88;4218240;28;20032;-72
2023/06/04 01:18:47;;;;;;;;;;;;;;;13.80;42.15;101708.81;4183488;28;20020;-71
2023/06/04 01:20:49;;;;;;;;;;;;;;;13.77;42.36;101708.31;4186045;28;20019;-71
2023/06/04 01:23:05;;;;;;;;;;;;;;;13.70;42.32;101711.72;4186181;28;20038;-71
2023/06/04 01:25:11;;;;;;;;;;;;;;;13.66;42.54;101714.97;4185980;28;20027;-71
2023/06/04 01:27:15;;;;;;;;;;;;;;;13.60;42.88;101705.63;4218861;28;20020;-72
2023/06/04 01:29:18;;;;;;;;;;;;;;;13.57;43.06;101707.84;4186733;28;20023;-73
2023/06/04 01:31:22;;;;;;;;;;;;;;;13.51;43.30;101712.09;4187212;28;20031;-72
2023/06/04 01:33:24;;;;;;;;;;;;;;;13.45;43.10;101708.22;4185185;28;20019;-75
2023/06/04 01:35:28;;;;;;;;;;;;;;;13.44;43.13;101717.38;4216989;28;20010;-72
2023/06/04 01:37:30;;;;;;;;;;;;;;;13.42;42.91;101710.44;4216109;28;20018;-71
2023/06/04 01:39:32;;;;;;;;;;;;;;;13.37;42.98;101708.25;4185246;28;20462;-72
2023/06/04 01:41:34;;;;;;;;;;;;;;;13.33;43.65;101710.44;4186338;28;20028;-73
2023/06/04 01:43:36;;;;;;;;;;;;;;;13.26;43.51;101706.69;4186075;28;20019;-73
2023/06/04 01:45:38;;;;;;;;;;;;;;;13.21;44.00;101706.34;4185920;28;20014;-72
2023/06/04 01:47:40;;;;;;;;;;;;;;;13.20;44.04;101710.09;4185371;28;20031;-73
2023/06/04 01:49:42;;;;;;;;;;;;;;;13.21;44.22;101706.34;4184769;28;20011;-72
2023/06/04 01:51:45;;;;;;;;;;;;;;;13.20;44.06;101712.81;4186745;28;20019;-72
2023/06/04 01:53:47;;;;;;;;;;;;;;;13.15;44.20;101707.06;4186066;28;20031;-72
2023/06/04 01:55:50;;;;;;;;;;;;;;;13.09;44.30;101707.72;4185997;28;20027;-72
2023/06/04 01:57:52;;;;;;;;;;;;;;;13.06;44.72;101703.47;4201892;28;20015;-72
2023/06/04 01:59:56;;;;;;;;;;;;;;;13.06;44.91;101708.06;4185233;28;20027;-73
2023/06/04 02:01:58;;;;;;;;;;;;;;;13.05;44.57;101709.06;4201115;28;20027;-71
2023/06/04 02:04:03;;;;;;;;;;;;;;;13.03;44.87;101695.69;4185415;28;20020;-71
2023/06/04 02:06:07;;;;;;;;;;;;;;;13.01;44.76;101707.72;4185861;28;20019;-71
2023/06/04 02:08:11;;;;;;;;;;;;;;;13.01;44.38;101702.28;4186270;28;20035;-72
2023/06/04 02:10:13;;;;;;;;;;;;;;;13.01;44.98;101696.84;4185022;28;20032;-71
2023/06/04 02:12:15;;;;;;;;;;;;;;;12.98;45.04;101696.19;4185753;28;20019;-72
2023/06/04 02:14:17;;;;;;;;;;;;;;;12.96;44.96;101703.66;4186247;28;20842;-72
2023/06/04 02:16:19;;;;;;;;;;;;;;;12.97;45.00;101708.03;4186408;28;20023;-72
2023/06/04 02:18:22;;;;;;;;;;;;;;;12.95;45.08;101690.28;4186543;28;20458;-72
2023/06/04 02:20:24;;;;;;;;;;;;;;;12.94;45.01;101705.66;4186674;28;20011;-72
2023/06/04 02:22:26;;;;;;;;;;;;;;;12.90;45.17;101701.63;4187175;28;20028;-73
2023/06/04 02:24:30;;;;;;;;;;;;;;;12.85;45.74;101698.53;4189139;28;20024;-73
2023/06/04 02:26:32;;;;;;;;;;;;;;;12.82;45.95;101698.03;4189957;28;20024;-73
2023/06/04 02:28:35;;;;;;;;;;;;;;;12.79;45.91;101697.38;4189628;28;20351;-72
2023/06/04 02:30:37;;;;;;;;;;;;;;;12.77;46.01;101696.72;4188004;28;20064;-73
2023/06/04 02:32:39;;;;;;;;;;;;;;;12.74;45.70;101694.34;4188445;28;20051;-72
2023/06/04 02:34:41;;;;;;;;;;;;;;;12.72;46.03;101692.78;4189212;28;20015;-73
2023/06/04 02:36:48;;;;;;;;;;;;;;;12.68;46.30;101695.00;4189377;28;20031;-72
2023/06/04 02:38:51;;;;;;;;;;;;;;;12.64;46.22;101695.50;4185846;28;20019;-72
2023/06/04 02:40:54;;;;;;;;;;;;;;;12.62;46.44;101701.09;4172233;28;20019;-71
2023/06/04 02:42:56;;;;;;;;;;;;;;;12.61;46.44;101699.38;4153449;28;20036;-74
2023/06/04 02:44:58;;;;;;;;;;;;;;;12.56;46.98;101702.59;4198604;28;20034;-73
2023/06/04 02:47:00;;;;;;;;;;;;;;;12.52;47.00;101703.94;4203554;28;20094;-73
2023/06/04 02:49:02;;;;;;;;;;;;;;;12.51;47.04;101696.84;4172295;28;20028;-73
2023/06/04 02:51:05;;;;;;;;;;;;;;;12.50;47.18;101703.25;4172818;28;20024;-72
2023/06/04 02:53:07;;;;;;;;;;;;;;;12.46;47.17;101699.19;4205280;28;20015;-72
2023/06/04 02:55:12;;;;;;;;;;;;;;;12.44;47.28;101703.91;4167519;28;20491;-72
2023/06/04 02:57:15;;;;;;;;;;;;;;;12.44;47.14;101709.34;4189758;28;20024;-72
2023/06/04 02:59:18;;;;;;;;;;;;;;;12.44;47.38;101706.63;4187528;28;20365;-71
2023/06/04 03:01:20;;;;;;;;;;;;;;;12.46;47.25;101712.75;4204675;28;20015;-72
2023/06/04 03:03:24;;;;;;;;;;;;;;;12.52;47.21;101709.34;4203935;28;20794;-73
2023/06/04 03:05:26;;;;;;;;;;;;;;;12.53;47.47;101713.75;4183050;28;20008;-73
2023/06/04 03:07:28;;;;;;;;;;;;;;;12.52;47.13;101712.06;4188705;28;20361;-73
2023/06/04 03:09:31;;;;;;;;;;;;;;;12.50;47.35;101710.53;4188893;28;20011;-73
2023/06/04 03:11:33;;;;;;;;;;;;;;;12.42;47.81;101705.94;4189547;28;20027;-72
2023/06/04 03:13:36;;;;;;;;;;;;;;;12.42;47.82;101706.78;4188530;28;20015;-72
2023/06/04 03:15:38;;;;;;;;;;;;;;;12.39;47.83;101715.25;4171434;28;20008;-71
2023/06/04 03:17:41;;;;;;;;;;;;;;;12.36;47.96;101710.16;4172737;28;20016;-72
2023/06/04 03:19:43;;;;;;;;;;;;;;;12.36;48.17;101710.16;4172406;28;20032;-74
2023/06/04 03:21:45;;;;;;;;;;;;;;;12.32;48.44;101705.22;4166299;28;20490;-74
2023/06/04 03:23:47;;;;;;;;;;;;;;;12.27;48.36;101705.72;4203416;28;20019;-72
2023/06/04 03:25:49;;;;;;;;;;;;;;;12.23;48.46;101707.94;4186954;28;20015;-72
2023/06/04 03:27:53;;;;;;;;;;;;;;;12.24;48.48;101711.47;4203934;28;20014;-72
2023/06/04 03:29:56;;;;;;;;;;;;;;;12.25;48.74;101710.47;4172184;28;20427;-73
2023/06/04 03:31:59;;;;;;;;;;;;;;;12.24;48.68;101708.75;4203507;28;20015;-73
2023/06/04 03:34:02;;;;;;;;;;;;;;;12.23;49.12;101712.50;4188758;28;20015;-73
2023/06/04 03:36:04;;;;;;;;;;;;;;;12.23;48.95;101712.50;4171660;28;20044;-71
2023/06/04 03:38:06;;;;;;;;;;;;;;;12.28;49.19;101714.72;4172042;28;20015;-72
2023/06/04 03:40:09;;;;;;;;;;;;;;;12.31;49.49;101720.66;4202992;28;20457;-71
2023/06/04 03:42:15;;;;;;;;;;;;;;;12.28;49.68;101717.44;4203258;28;20023;-72
2023/06/04 03:44:17;;;;;;;;;;;;;;;12.24;49.77;101711.47;4202995;28;20470;-72
2023/06/04 03:46:21;;;;;;;;;;;;;;;12.20;49.71;101716.38;4170299;28;20367;-72
2023/06/04 03:48:26;;;;;;;;;;;;;;;12.21;50.23;101711.78;4203478;28;20351;-72
2023/06/04 03:50:28;;;;;;;;;;;;;;;12.21;49.96;101722.63;4171196;28;20019;-72
2023/06/04 03:52:32;;;;;;;;;;;;;;;12.21;50.08;101722.63;4154794;28;20035;-73
2023/06/04 03:54:35;;;;;;;;;;;;;;;12.21;50.67;101722.63;4186534;28;20012;-71
2023/06/04 03:56:38;;;;;;;;;;;;;;;12.20;50.61;101715.53;4186302;28;20015;-73
2023/06/04 03:58:40;;;;;;;;;;;;;;;12.20;51.10;101715.53;4203355;28;20059;-72
2023/06/04 04:00:42;;;;;;;;;;;;;;;12.21;50.74;101719.94;4165766;28;20027;-71
2023/06/04 04:02:45;;;;;;;;;;;;;;;12.24;50.93;101709.63;4170172;28;20012;-72
2023/06/04 04:04:56;;;;;;;;;;;;;;;12.28;50.52;101715.56;4185811;28;20003;-74
2023/06/04 04:07:00;;;;;;;;;;;;;;;12.33;50.41;101715.06;4186289;28;20363;-72
2023/06/04 04:09:03;;;;;;;;;;;;;;;12.38;50.81;101723.53;4199034;28;20638;-72
2023/06/04 04:11:05;;;;;;;;;;;;;;;12.42;50.47;101720.34;4169965;28;20430;-72
2023/06/04 04:13:08;;;;;;;;;;;;;;;12.54;50.03;101720.88;4186026;28;20071;-73
2023/06/04 04:15:13;;;;;;;;;;;;;;;12.70;49.38;101721.94;4201988;28;20011;-71
2023/06/04 04:17:16;;;;;;;;;;;;;;;12.80;49.09;101714.47;4167236;28;20015;-72
2023/06/04 04:19:20;;;;;;;;;;;;;;;12.91;48.89;101719.56;4202064;28;20016;-71
2023/06/04 04:21:24;;;;;;;;;;;;;;;12.95;48.74;101720.94;4169744;28;20024;-72
2023/06/04 04:23:27;;;;;;;;;;;;;;;12.94;49.45;101723.81;4186726;28;20016;-74
2023/06/04 04:25:29;;;;;;;;;;;;;;;12.95;49.17;101723.66;4202457;28;20023;-72
2023/06/04 04:27:33;;;;;;;;;;;;;;;13.03;49.16;101727.38;4202799;28;20038;-71
2023/06/04 04:29:35;;;;;;;;;;;;;;;13.10;49.28;101714.81;4178439;28;20019;-71
2023/06/04 04:31:38;;;;;;;;;;;;;;;13.14;49.71;101721.63;4187285;28;20035;-70
2023/06/04 04:33:40;;;;;;;;;;;;;;;13.16;49.47;101717.72;4218895;28;20407;-72
2023/06/04 04:35:48;;;;;;;;;;;;;;;13.22;49.60;101718.91;4185093;28;20027;-71
2023/06/04 04:37:55;;;;;;;;;;;;;;;13.26;49.79;101719.41;4165388;28;20015;-71
2023/06/04 04:39:58;;;;;;;;;;;;;;;13.32;50.03;101726.84;4169538;28;20119;-71
2023/06/04 04:42:02;;;;;;;;;;;;;;;13.40;49.67;101724.19;4202184;28;20030;-71
2023/06/04 04:44:05;;;;;;;;;;;;;;;13.45;50.19;101718.25;4201717;28;20024;-71
2023/06/04 04:46:08;;;;;;;;;;;;;;;13.50;49.99;101719.41;4201494;28;20031;-72
2023/06/04 04:48:10;;;;;;;;;;;;;;;13.54;49.50;101725.31;4171589;28;20047;-71
2023/06/04 04:50:13;;;;;;;;;;;;;;;13.60;49.39;101723.78;4169160;28;20455;-71
2023/06/04 04:52:16;;;;;;;;;;;;;;;13.66;49.30;101726.66;4202530;28;20014;-71
2023/06/04 04:54:19;;;;;;;;;;;;;;;13.70;48.85;101725.31;4201642;28;20007;-72
2023/06/04 04:56:22;;;;;;;;;;;;;;;13.76;49.28;101722.91;4170660;28;20381;-72
2023/06/04 04:58:25;;;;;;;;;;;;;;;13.79;49.02;101717.13;4202463;28;20022;-71
2023/06/04 05:00:30;;;;;;;;;;;;;;;13.85;48.96;101727.28;4202230;28;20015;-72
2023/06/04 05:02:33;;;;;;;;;;;;;;;13.88;48.44;101726.94;4201918;28;20015;-72
2023/06/04 05:04:35;;;;;;;;;;;;;;;13.92;48.87;101728.28;4168198;28;20043;-72
2023/06/04 05:06:38;;;;;;;;;;;;;;;13.96;48.80;101726.91;4184431;28;20039;-71
2023/06/04 05:08:42;;;;;;;;;;;;;;;13.99;48.49;101728.44;4184377;28;20031;-72
2023/06/04 05:10:45;;;;;;;;;;;;;;;14.01;48.52;101732.69;4185726;28;20035;-71
2023/06/04 05:12:53;;;;;;;;;;;;;;;14.05;48.30;101727.72;4200956;28;20019;-72
2023/06/04 05:14:58;;;;;;;;;;;;;;;14.11;47.85;101732.47;4201688;28;20015;-71
2023/06/04 05:17:02;;;;;;;;;;;;;;;14.17;48.06;101734.47;4202819;28;20027;-71
2023/06/04 05:19:04;;;;;;;;;;;;;;;14.22;48.14;101733.94;4200749;28;20047;-71
2023/06/04 05:21:11;;;;;;;;;;;;;;;14.25;47.83;101736.31;4201436;28;20360;-72
2023/06/04 05:23:18;;;;;;;;;;;;;;;14.28;47.90;101735.09;4152799;28;20008;-72
2023/06/04 05:25:26;;;;;;;;;;;;;;;14.32;47.88;101733.72;4169907;28;20031;-72
2023/06/04 05:27:29;;;;;;;;;;;;;;;14.35;48.11;101731.50;4170353;28;20063;-72
2023/06/04 05:29:32;;;;;;;;;;;;;;;14.40;47.67;101733.69;4168509;28;20043;-71
2023/06/04 05:31:34;;;;;;;;;;;;;;;14.44;47.87;101736.91;4166066;28;20035;-72
2023/06/04 05:33:38;;;;;;;;;;;;;;;14.48;47.73;101736.38;4168783;28;20024;-71
2023/06/04 05:35:44;;;;;;;;;;;;;;;14.54;47.31;101740.22;4186374;28;20246;-72
2023/06/04 05:37:53;;;;;;;;;;;;;;;14.58;47.57;101738.84;4217084;28;20032;-73
2023/06/04 05:39:57;;;;;;;;;;;;;;;14.63;47.43;101739.19;4185219;28;20011;-72
2023/06/04 05:42:01;;;;;;;;;;;;;;;14.68;46.89;101733.22;4218586;28;20028;-74
2023/06/04 05:44:03;;;;;;;;;;;;;;;14.72;46.96;101738.09;4185311;28;20019;-73
2023/06/04 05:46:07;;;;;;;;;;;;;;;14.77;46.97;101738.41;4216688;28;20018;-73
2023/06/04 05:48:10;;;;;;;;;;;;;;;14.82;46.68;101737.88;4186429;28;20397;-72
2023/06/04 05:50:12;;;;;;;;;;;;;;;14.87;46.89;101743.59;4185650;28;20759;-72
2023/06/04 05:52:16;;;;;;;;;;;;;;;14.91;46.93;101739.50;4218552;28;20399;-73
2023/06/04 05:54:20;;;;;;;;;;;;;;;14.93;46.61;101742.88;4169399;28;20021;-71
2023/06/04 05:56:23;;;;;;;;;;;;;;;14.98;46.67;101746.94;4219740;28;20050;-71
2023/06/04 05:58:27;;;;;;;;;;;;;;;15.00;46.58;101745.75;4188588;28;20064;-71
2023/06/04 06:00:29;;;;;;;;;;;;;;;15.03;46.26;101749.97;4188764;28;20023;-72
2023/06/04 06:02:32;;;;;;;;;;;;;;;15.07;45.75;101743.97;4205605;28;20040;-72
2023/06/04 06:04:34;;;;;;;;;;;;;;;15.10;45.90;101738.16;4188276;28;20032;-71
2023/06/04 06:06:36;;;;;;;;;;;;;;;15.14;46.01;101750.38;4189276;28;20028;-70
2023/06/04 06:08:38;;;;;;;;;;;;;;;15.18;45.76;101745.41;4189275;28;20027;-72
2023/06/04 06:10:42;;;;;;;;;;;;;;;15.22;45.46;101754.03;4222034;28;20011;-72
2023/06/04 06:12:44;;;;;;;;;;;;;;;15.26;44.88;101752.66;4188565;28;20395;-73
2023/06/04 06:14:48;;;;;;;;;;;;;;;15.29;44.24;101753.13;4189015;28;20020;-73
2023/06/04 06:16:50;;;;;;;;;;;;;;;15.33;44.12;101753.63;4221696;28;20027;-73
2023/06/04 06:18:52;;;;;;;;;;;;;;;15.35;43.23;101748.84;4221061;28;20050;-72
2023/06/04 06:20:54;;;;;;;;;;;;;;;15.36;42.23;101746.97;4188748;28;20015;-72
2023/06/04 06:22:58;;;;;;;;;;;;;;;15.36;41.67;101746.97;4203727;28;20023;-71
2023/06/04 06:25:00;;;;;;;;;;;;;;;15.41;41.60;101756.28;4189340;28;20023;-72
2023/06/04 06:27:02;;;;;;;;;;;;;;;15.43;41.42;101762.38;4221563;28;20040;-73
2023/06/04 06:29:04;;;;;;;;;;;;;;;15.45;41.63;101762.19;4171118;28;20393;-72
2023/06/04 06:31:10;;;;;;;;;;;;;;;15.48;41.88;101762.66;4188141;28;20016;-72
2023/06/04 06:33:12;;;;;;;;;;;;;;;15.52;41.34;101759.56;4189922;28;20379;-72
2023/06/04 06:35:14;;;;;;;;;;;;;;;15.53;41.25;101764.81;4188758;28;20055;-72
2023/06/04 06:37:16;;;;;;;;;;;;;;;15.54;41.32;101758.34;4189431;28;20015;-73
2023/06/04 06:39:18;;;;;;;;;;;;;;;15.57;41.26;101766.16;4189182;28;20020;-73
2023/06/04 06:41:20;;;;;;;;;;;;;;;15.59;41.68;101761.38;4188352;28;19964;-72
2023/06/04 06:43:22;;;;;;;;;;;;;;;15.62;41.74;101765.59;4187954;28;20011;-71
2023/06/04 06:45:25;;;;;;;;;;;;;;;15.64;41.34;101761.69;4188985;28;20007;-72
2023/06/04 06:47:28;;;;;;;;;;;;;;;15.67;41.49;101763.16;4189494;28;20863;-72
2023/06/04 06:49:30;;;;;;;;;;;;;;;15.69;41.68;101769.28;4188963;28;20024;-71
2023/06/04 06:51:32;;;;;;;;;;;;;;;15.72;41.27;101768.91;4187862;28;20019;-71
2023/06/04 06:53:34;;;;;;;;;;;;;;;15.75;41.05;101768.53;4187967;28;20027;-72
2023/06/04 06:55:38;;;;;;;;;;;;;;;15.78;40.86;101762.75;4186442;28;20458;-72
2023/06/04 06:57:40;;;;;;;;;;;;;;;15.80;41.10;101755.25;4189040;28;20027;-71
2023/06/04 06:59:42;;;;;;;;;;;;;;;15.85;40.88;101757.41;4188585;28;20019;-70
2023/06/04 07:01:44;;;;;;;;;;;;;;;15.89;39.90;101766.03;4189034;28;20028;-71
2023/06/04 07:03:47;;;;;;;;;;;;;;;15.89;39.68;101758.69;4188454;28;20363;-71
2023/06/04 07:05:49;;;;;;;;;;;;;;;15.94;39.49;101763.59;4188430;28;20031;-72
2023/06/04 07:07:52;;;;;;;;;;;;;;;15.96;38.94;101759.66;4188000;28;20032;-73
2023/06/04 07:09:54;;;;;;;;;;;;;;;15.98;39.25;101773.09;4187805;28;20024;-72
2023/06/04 07:11:56;;;;;;;;;;;;;;;15.98;37.72;101768.47;4186866;28;20018;-72
2023/06/04 07:13:58;;;;;;;;;;;;;;;16.01;38.68;101772.72;4188609;28;20446;-71
2023/06/04 07:16:02;;;;;;;;;;;;;;;16.02;38.67;101769.81;4188363;28;20015;-71
2023/06/04 07:18:04;;;;;;;;;;;;;;;16.05;38.41;101768.59;4188198;28;20019;-71
2023/06/04 07:20:09;;;;;;;;;;;;;;;16.07;37.66;101771.13;4187732;28;20016;-71
2023/06/04 07:22:11;;;;;;;;;;;;;;;16.09;38.29;101778.06;4187872;28;20316;-71
2023/06/04 07:24:13;;;;;;;;;;;;;;;16.09;37.68;101764.44;4170990;28;20036;-70
2023/06/04 07:26:16;;;;;;;;;;;;;;;16.12;38.74;101771.41;4156094;28;20020;-72
2023/06/04 07:28:18;;;;;;;;;;;;;;;16.13;38.83;101763.03;4188987;28;20278;-71
2023/06/04 07:30:20;;;;;;;;;;;;;;;16.16;39.48;101769.97;4187015;28;20027;-71
2023/06/04 07:32:22;;;;;;;;;;;;;;;16.17;39.65;101767.06;4186624;28;20035;-71
2023/06/04 07:34:24;;;;;;;;;;;;;;;16.19;39.44;101765.00;4188671;28;20007;-70
2023/06/04 07:36:28;;;;;;;;;;;;;;;16.21;39.84;101776.56;4188393;28;20039;-70
2023/06/04 07:38:30;;;;;;;;;;;;;;;16.24;39.17;101767.16;4188148;28;20011;-68
2023/06/04 07:40:32;;;;;;;;;;;;;;;16.26;38.33;101765.09;4187035;28;20000;-71
2023/06/04 07:42:34;;;;;;;;;;;;;;;16.29;38.75;101764.72;4189372;28;20023;-70
2023/06/04 07:44:37;;;;;;;;;;;;;;;16.33;38.13;101766.03;4169954;28;20453;-71
2023/06/04 07:46:39;;;;;;;;;;;;;;;16.36;38.55;101765.66;4188479;28;20444;-70
2023/06/04 07:48:41;;;;;;;;;;;;;;;16.38;39.08;101763.56;4187838;28;20019;-71
2023/06/04 07:50:43;;;;;;;;;;;;;;;16.43;38.81;101765.72;4189186;28;20011;-71
2023/06/04 07:52:46;;;;;;;;;;;;;;;16.46;38.75;101776.25;4186441;28;20035;-71
2023/06/04 07:54:48;;;;;;;;;;;;;;;16.46;39.32;101767.22;4187961;28;20023;-71
2023/06/04 07:56:55;;;;;;;;;;;;;;;16.48;39.56;101765.16;4187157;28;20027;-69
2023/06/04 07:58:57;;;;;;;;;;;;;;;16.48;39.33;101767.88;4186659;28;20351;-70
2023/06/04 08:00:59;;;;;;;;;;;;;;;16.49;39.36;101764.09;4188142;28;20015;-70
2023/06/04 08:03:03;;;;;;;;;;;;;;;16.52;39.50;101766.44;4185307;28;20027;-69
2023/06/04 08:05:05;;;;;;;;;;;;;;;16.54;39.73;101762.50;4181290;28;20011;-71
2023/06/04 08:07:07;;;;;;;;;;;;;;;16.57;40.00;101769.47;4185982;28;20015;-71
2023/06/04 08:09:13;;;;;;;;;;;;;;;16.57;39.99;101772.19;4186705;28;20019;-72
2023/06/04 08:11:22;;;;;;;;;;;;;;;16.62;39.69;101764.25;4186201;28;20011;-71
2023/06/04 08:13:27;;;;;;;;;;;;;;;16.64;39.49;101759.44;4184788;28;19975;-71
2023/06/04 08:15:29;;;;;;;;;;;;;;;16.64;38.49;101770.38;4181242;28;20019;-73
2023/06/04 08:17:31;;;;;;;;;;;;;;;16.67;38.43;101761.78;4181008;28;20024;-73
2023/06/04 08:19:33;;;;;;;;;;;;;;;16.73;38.83;101763.75;4183998;28;20405;-71
2023/06/04 08:21:35;;;;;;;;;;;;;;;16.85;37.29;101760.50;4183653;28;20679;-72
2023/06/04 08:23:37;;;;;;;;;;;;;;;16.88;37.22;101768.34;4184776;28;20024;-71
2023/06/04 08:25:41;;;;;;;;;;;;;;;16.89;36.79;101762.69;4186144;28;21847;-70
2023/06/04 08:27:43;;;;;;;;;;;;;;;16.84;36.95;101765.13;4187565;28;20044;-69
2023/06/04 08:29:45;;;;;;;;;;;;;;;16.87;37.43;101772.97;4183722;28;20024;-71
2023/06/04 08:31:47;;;;;;;;;;;;;;;16.88;37.96;101765.63;4186521;28;20024;-71
2023/06/04 08:33:50;;;;;;;;;;;;;;;16.90;37.86;101766.28;4186495;28;20066;-70
2023/06/04 08:35:52;;;;;;;;;;;;;;;16.91;37.05;101770.69;4187007;28;20020;-70
2023/06/04 08:37:54;;;;;;;;;;;;;;;16.93;37.02;101776.81;4187418;28;20027;-69
2023/06/04 08:39:56;;;;;;;;;;;;;;;17.02;37.60;101769.31;4186421;28;20031;-70
2023/06/04 08:42:02;;;;;;;;;;;;;;;17.00;37.17;101769.53;4183079;28;20549;-72
2023/06/04 08:44:04;;;;;;;;;;;;;;;17.01;37.77;101776.69;4168376;28;20017;-69
2023/06/04 08:46:08;;;;;;;;;;;;;;;17.04;38.04;101767.28;4184227;28;20020;-69
2023/06/04 08:48:11;;;;;;;;;;;;;;;17.02;38.04;101772.06;4185909;28;20043;-73
2023/06/04 08:50:14;;;;;;;;;;;;;;;17.03;38.19;101773.75;4169381;28;20374;-71
2023/06/04 08:52:16;;;;;;;;;;;;;;;17.05;38.30;101774.41;4186125;28;20028;-72
2023/06/04 08:54:18;;;;;;;;;;;;;;;17.05;38.22;101766.22;4187177;28;20015;-71
2023/06/04 08:56:20;;;;;;;;;;;;;;;17.06;38.36;101776.09;4202013;28;20027;-71
2023/06/04 08:58:25;;;;;;;;;;;;;;;17.07;38.09;101766.88;4186925;28;20051;-72
2023/06/04 09:00:29;;;;;;;;;;;;;;;17.08;38.36;101769.41;4186407;28;20019;-70
2023/06/04 09:02:31;;;;;;;;;;;;;;;17.14;38.02;101770.50;4187332;28;20023;-70
2023/06/04 09:04:33;;;;;;;;;;;;;;;17.15;38.18;101769.47;4186249;28;20035;-71
2023/06/04 09:06:36;;;;;;;;;;;;;;;17.15;38.03;101776.78;4185929;28;20019;-71
2023/06/04 09:08:39;;;;;;;;;;;;;;;17.16;38.09;101771.13;4186039;28;20027;-70
2023/06/04 09:10:41;;;;;;;;;;;;;;;17.20;38.04;101767.00;4185644;28;20619;-71
2023/06/04 09:12:43;;;;;;;;;;;;;;;17.26;37.77;101771.66;4183299;28;20028;-70
2023/06/04 09:14:47;;;;;;;;;;;;;;;17.27;37.49;101780.69;4182929;28;20397;-72
2023/06/04 09:16:52;;;;;;;;;;;;;;;17.25;37.41;101775.44;4182860;28;20019;-72
2023/06/04 09:18:54;;;;;;;;;;;;;;;17.28;37.66;101775.03;4182410;28;20023;-72
2023/06/04 09:21:03;;;;;;;;;;;;;;;17.30;37.59;101769.38;4184023;28;20020;-72
2023/06/04 09:23:13;;;;;;;;;;;;;;;17.29;37.54;101779.47;4183911;28;20035;-73
2023/06/04 09:25:25;;;;;;;;;;;;;;;17.32;37.37;101775.50;4182555;28;20031;-70
2023/06/04 09:27:29;;;;;;;;;;;;;;;17.32;37.62;101772.78;4182697;28;20015;-71
2023/06/04 09:29:31;;;;;;;;;;;;;;;17.34;37.86;101769.84;4187378;28;20011;-72
2023/06/04 09:31:36;;;;;;;;;;;;;;;17.35;37.39;101775.13;4201433;28;20364;-72
2023/06/04 09:33:45;;;;;;;;;;;;;;;17.34;37.55;101770.69;4182522;28;20425;-72
2023/06/04 09:35:54;;;;;;;;;;;;;;;17.34;37.72;101765.22;4183487;28;20031;-71
2023/06/04 09:37:59;;;;;;;;;;;;;;;17.37;37.71;101774.91;4184676;28;20047;-71
2023/06/04 09:40:05;;;;;;;;;;;;;;;17.45;37.02;101770.16;4215179;28;20019;-72
2023/06/04 09:42:09;;;;;;;;;;;;;;;17.48;37.24;101764.28;4181415;28;20469;-70
2023/06/04 09:44:13;;;;;;;;;;;;;;;17.53;36.67;101771.06;4184992;28;20472;-71
2023/06/04 09:46:16;;;;;;;;;;;;;;;17.51;37.18;101763.06;4185332;28;20040;-70
2023/06/04 09:48:24;;;;;;;;;;;;;;;17.57;36.35;101772.31;4184135;28;20454;-72
2023/06/04 09:50:26;;;;;;;;;;;;;;;17.59;36.20;101767.53;4182189;28;20067;-70
2023/06/04 09:52:33;;;;;;;;;;;;;;;17.60;35.90;101767.34;4184365;28;20002;-72
2023/06/04 09:54:36;;;;;;;;;;;;;;;17.59;35.81;101760.16;4183488;28;20016;-72
2023/06/04 09:56:40;;;;;;;;;;;;;;;17.62;36.65;101761.66;4182679;28;20052;-73
2023/06/04 09:58:42;;;;;;;;;;;;;;;17.67;36.09;101755.63;4181676;28;20028;-74
2023/06/04 10:00:44;;;;;;;;;;;;;;;17.69;35.96;101762.53;4184262;28;19929;-73
2023/06/04 10:02:47;;;;;;;;;;;;;;;17.67;36.18;101759.19;4183560;28;20019;-71
2023/06/04 10:04:53;;;;;;;;;;;;;;;17.65;36.27;101764.84;4183071;28;20371;-71
2023/06/04 10:06:55;;;;;;;;;;;;;;;17.69;36.04;101753.50;4183502;28;20034;-71
2023/06/04 10:08:57;;;;;;;;;;;;;;;17.67;36.00;101753.72;4183460;28;20011;-71
2023/06/04 10:11:00;;;;;;;;;;;;;;;17.71;35.11;101752.28;4183352;28;20040;-71
2023/06/04 10:13:06;;;;;;;;;;;;;;;17.70;35.47;101758.78;4182401;28;20462;-70
2023/06/04 10:15:11;;;;;;;;;;;;;;;17.74;35.59;101759.22;4183593;28;20015;-72
2023/06/04 10:17:13;;;;;;;;;;;;;;;17.78;35.46;101752.31;4184278;28;20007;-71
2023/06/04 10:19:15;;;;;;;;;;;;;;;17.75;35.32;101759.00;4183970;28;20414;-71
2023/06/04 10:21:19;;;;;;;;;;;;;;;17.75;35.74;101758.19;4185958;28;20836;-70
2023/06/04 10:23:21;;;;;;;;;;;;;;;17.73;34.69;101755.66;4181520;28;20027;-73
2023/06/04 10:25:23;;;;;;;;;;;;;;;17.77;34.78;101747.88;4184084;28;20031;-69
2023/06/04 10:27:25;;;;;;;;;;;;;;;17.79;35.80;101749.38;4185847;28;20030;-69
2023/06/04 10:29:27;;;;;;;;;;;;;;;17.80;35.98;101753.78;4186233;28;19989;-72
2023/06/04 10:31:30;;;;;;;;;;;;;;;17.81;36.04;101758.22;4184910;28;20063;-71